DeKalb, Illinois
Current Conditions -  °F | °C
As of 3:55 PM on Monday 20 Oct 2014 (Local Time) from KDKB Reporting Station
Broken Clouds Broken Clouds  
Wind Chill: 60°   Ceiling: 5000
Heat Index: 60°   Visibility: 10mi
Dew Point: 42°   Wind: 13mph
Humidity: 50%   Direction: 340°NNW
Pressure: 29.9"   Gusts: 18mph
Location:  41.93°N, 88.75°W
Report Text: KDKB 202055Z AUTO 34011G16KT 10SM BKN050 16/05 A2990 RMK AO2 T01580054
Loading
Personal Weather Stations






























Interactive Weather Map New forecast layout! Learn more

10-Day Weather Forecast

Advertisements
Track Severe Weather on mobile